Medical Lake, WA

1:07 AM PST on February 13, 2016 (GMT -0800)
Fairchild Air Force Base | | Change Station
CLOSE
Current Station
Airport
Location: Spokane Fairchild,
Elevation: 2461 ft
Nearby Weather Stations

Elev 2461 ft 47.62 °N, 117.66 °W | Updated 9 minutes ago

Overcast
Overcast
41 °F
Feels Like 32 °F
N
21
Wind Variable Wind from SW
Gusts 28 mph

Today
High -- | Low -- °F
--% Chance of Precip.
Yesterday
High -- | Low -- °F
Precip. -- in
Pressure 30.12 in
Visibility 10.0 miles
Clouds Overcast 400 ft
Windchill 32 °F
Dew Point 41 °F
Humidity 100%
Rainfall 0.00 in
Snow Depth Not available.
7:00 AM 5:09 PM
Waxing Crescent, 28% visible
METAR KSKA 130858Z AUTO 22018G24KT 10SM OVC004 05/05 A3008 RMK AO2 CIG 003V005 SLP198 60000 T00520052 50001 PWINO $
Pressure 30.12 in
Visibility 10.0 miles
Clouds Overcast 400 ft
Windchill 32 °F
Dew Point 41 °F
Humidity 100%
Rainfall 0.00 in
Snow Depth Not available.
7:00 AM 5:09 PM
Waxing Crescent, 28% visible
METAR KSKA 130858Z AUTO 22018G24KT 10SM OVC004 05/05 A3008 RMK AO2 CIG 003V005 SLP198 60000 T00520052 50001 PWINO $

10-Day Weather Forecast

Almanac

Astronomy

Feb. 13, 2016 Rise Set
Actual Time
Civil Twilight
Nautical Twilight
Astronomical Twilight
Moon
Length of Visible Light
Length of Day
Tomorrow will be .
, % of the Moon is Illuminated

Today's Extremes

State Highs State Lows

Community

WunderPhotos

Upload Photos

1,892,536 photos uploaded!

WunderBlog® & News

Nearby

Air Quality

  Air Quality AQ Index Pollutant
Not available.

Snow Depth

Station Depth Elevation

Earthquake Activity

City Distance Mag. Time & Date
Minimum magnitude displayed is 2.5.

Coastal Water Temperatures

Place Temperature

Stations

Nearby Weather Stations

Station Location Temp. Windchill Dew Point Humidity Wind Precip. Elev Updated Type
                   

Watches & Warnings

There are currently no watches in effect.